EHEH/EIN METAR and TAF weather

Enter ICAO airport designator
Station Type Date Time Source
EHEH METAR 2021/09/23 17:25 UTC NOAA

EHEH 231725Z AUTO 25007KT 230V290 9999 FEW022 BKN400 17/14 Q1017 BLU NOSIG


Station Type Date Time Source
EHEH Decoded METAR 2021/09/23 17:25 UTC NOAA

Eindhoven, Netherlands (EHEH) 51-27N 005-25E 28M
Sep 23, 2021 - 01:25 PM EDT / 2021.09.23 1725 UTC
Wind: from the WSW (250 degrees) at 8 MPH (7 KT) (direction variable):0
Visibility: greater than 7 mile(s):0
Sky conditions: mostly cloudy
Temperature: 62 F (17 C)
Dew Point: 57 F (14 C)
Relative Humidity: 82%
Pressure (altimeter): 30.03 in. Hg (1017 hPa)
ob: EHEH 231725Z AUTO 25007KT 230V290 9999 FEW022 BKN400 17/14 Q1017 BLU NOSIG
cycle: 17

Station Type Date Time Source
EHEH TAF 2021/09/23 18:30 UTC NOAA

TAF TAF EHEH 231712Z 2318/2424 26006KT 9999 FEW022 SCT025 PROB40
TEMPO 2403/2407 3500 BR SCT002 BKN008
TEMPO 2407/2410 BKN005
BECMG 2408/2411 24010G20KT
BECMG 2415/2418 22007KT PROB30
TEMPO 2420/2522 SCT015 BKN020

Example: see airport list